sensor_id;sensor_type;location;lat;lon;timestamp;P1;durP1;ratioP1;P2;durP2;ratioP2
46210;SDS011;52144;48.040;-1.594;2023-06-10T00:00:28;8.60;;;4.18;;
46210;SDS011;52144;48.040;-1.594;2023-06-10T00:02:58;9.80;;;4.80;;
46210;SDS011;52144;48.040;-1.594;2023-06-10T00:05:26;6.97;;;4.03;;
46210;SDS011;52144;48.040;-1.594;2023-06-10T00:07:56;5.72;;;4.57;;
46210;SDS011;52144;48.040;-1.594;2023-06-10T00:10:24;6.57;;;4.78;;
46210;SDS011;52144;48.040;-1.594;2023-06-10T00:12:52;6.35;;;3.70;;
46210;SDS011;52144;48.040;-1.594;2023-06-10T00:15:20;8.23;;;5.03;;
46210;SDS011;52144;48.040;-1.594;2023-06-10T00:17:49;8.63;;;3.92;;
46210;SDS011;52144;48.040;-1.594;2023-06-10T00:20:19;7.70;;;4.13;;
46210;SDS011;52144;48.040;-1.594;2023-06-10T00:22:49;14.40;;;4.63;;
46210;SDS011;52144;48.040;-1.594;2023-06-10T00:25:18;6.68;;;4.57;;
46210;SDS011;52144;48.040;-1.594;2023-06-10T00:27:46;7.40;;;4.30;;
46210;SDS011;52144;48.040;-1.594;2023-06-10T00:30:14;5.93;;;4.18;;
46210;SDS011;52144;48.040;-1.594;2023-06-10T00:32:42;4.15;;;3.35;;
46210;SDS011;52144;48.040;-1.594;2023-06-10T00:35:11;8.15;;;4.00;;
46210;SDS011;52144;48.040;-1.594;2023-06-10T00:37:39;9.63;;;4.95;;
46210;SDS011;52144;48.040;-1.594;2023-06-10T00:40:07;5.70;;;3.60;;
46210;SDS011;52144;48.040;-1.594;2023-06-10T00:42:36;5.95;;;3.67;;
46210;SDS011;52144;48.040;-1.594;2023-06-10T00:45:04;7.78;;;4.90;;
46210;SDS011;52144;48.040;-1.594;2023-06-10T00:47:33;7.22;;;5.38;;
46210;SDS011;52144;48.040;-1.594;2023-06-10T00:50:02;7.95;;;3.70;;
46210;SDS011;52144;48.040;-1.594;2023-06-10T00:52:32;10.57;;;5.07;;
46210;SDS011;52144;48.040;-1.594;2023-06-10T00:55:01;7.70;;;4.00;;
46210;SDS011;52144;48.040;-1.594;2023-06-10T00:57:29;14.18;;;5.75;;
46210;SDS011;52144;48.040;-1.594;2023-06-10T00:59:58;13.48;;;5.50;;
46210;SDS011;52144;48.040;-1.594;2023-06-10T01:02:27;9.63;;;5.65;;
46210;SDS011;52144;48.040;-1.594;2023-06-10T01:04:55;9.13;;;5.78;;
46210;SDS011;52144;48.040;-1.594;2023-06-10T01:07:25;12.13;;;5.93;;
46210;SDS011;52144;48.040;-1.594;2023-06-10T01:10:01;9.50;;;5.63;;
46210;SDS011;52144;48.040;-1.594;2023-06-10T01:12:33;10.88;;;5.13;;
46210;SDS011;52144;48.040;-1.594;2023-06-10T01:15:06;8.05;;;5.25;;
46210;SDS011;52144;48.040;-1.594;2023-06-10T01:17:37;6.25;;;4.32;;
46210;SDS011;52144;48.040;-1.594;2023-06-10T01:20:22;9.15;;;5.03;;
46210;SDS011;52144;48.040;-1.594;2023-06-10T01:22:51;11.25;;;5.45;;
46210;SDS011;52144;48.040;-1.594;2023-06-10T01:25:20;7.93;;;5.05;;
46210;SDS011;52144;48.040;-1.594;2023-06-10T01:27:57;11.63;;;5.13;;
46210;SDS011;52144;48.040;-1.594;2023-06-10T01:30:35;8.70;;;5.53;;
46210;SDS011;52144;48.040;-1.594;2023-06-10T01:33:08;7.63;;;5.35;;
46210;SDS011;52144;48.040;-1.594;2023-06-10T01:35:38;9.75;;;4.97;;
46210;SDS011;52144;48.040;-1.594;2023-06-10T01:38:11;7.60;;;5.22;;
46210;SDS011;52144;48.040;-1.594;2023-06-10T01:40:41;11.20;;;4.22;;
46210;SDS011;52144;48.040;-1.594;2023-06-10T01:43:09;12.95;;;4.30;;
46210;SDS011;52144;48.040;-1.594;2023-06-10T01:45:37;6.28;;;4.20;;
46210;SDS011;52144;48.040;-1.594;2023-06-10T01:48:05;9.35;;;4.60;;
46210;SDS011;52144;48.040;-1.594;2023-06-10T01:50:33;8.15;;;4.63;;
46210;SDS011;52144;48.040;-1.594;2023-06-10T01:53:01;11.57;;;4.10;;
46210;SDS011;52144;48.040;-1.594;2023-06-10T01:55:30;6.55;;;4.22;;
46210;SDS011;52144;48.040;-1.594;2023-06-10T01:57:58;6.95;;;5.20;;
46210;SDS011;52144;48.040;-1.594;2023-06-10T02:00:26;13.60;;;4.78;;
46210;SDS011;52144;48.040;-1.594;2023-06-10T02:02:54;8.68;;;5.00;;
46210;SDS011;52144;48.040;-1.594;2023-06-10T02:05:22;8.30;;;4.53;;
46210;SDS011;52144;48.040;-1.594;2023-06-10T02:07:50;13.35;;;5.35;;
46210;SDS011;52144;48.040;-1.594;2023-06-10T02:10:18;8.88;;;5.00;;
46210;SDS011;52144;48.040;-1.594;2023-06-10T02:12:47;8.75;;;4.93;;
46210;SDS011;52144;48.040;-1.594;2023-06-10T02:15:15;6.57;;;4.10;;
46210;SDS011;52144;48.040;-1.594;2023-06-10T02:17:42;14.85;;;4.82;;
46210;SDS011;52144;48.040;-1.594;2023-06-10T02:20:11;7.88;;;4.72;;
46210;SDS011;52144;48.040;-1.594;2023-06-10T02:22:40;8.65;;;5.18;;
46210;SDS011;52144;48.040;-1.594;2023-06-10T02:25:08;8.13;;;5.32;;
46210;SDS011;52144;48.040;-1.594;2023-06-10T02:27:37;7.28;;;4.45;;
46210;SDS011;52144;48.040;-1.594;2023-06-10T02:30:07;10.25;;;5.30;;
46210;SDS011;52144;48.040;-1.594;2023-06-10T02:32:36;12.05;;;5.68;;
46210;SDS011;52144;48.040;-1.594;2023-06-10T02:35:04;7.38;;;4.60;;
46210;SDS011;52144;48.040;-1.594;2023-06-10T02:37:33;10.95;;;6.45;;
46210;SDS011;52144;48.040;-1.594;2023-06-10T02:40:01;11.38;;;5.82;;
46210;SDS011;52144;48.040;-1.594;2023-06-10T02:42:29;8.20;;;4.82;;
46210;SDS011;52144;48.040;-1.594;2023-06-10T02:44:57;6.80;;;3.95;;
46210;SDS011;52144;48.040;-1.594;2023-06-10T02:47:26;5.70;;;4.57;;
46210;SDS011;52144;48.040;-1.594;2023-06-10T02:49:54;11.10;;;5.03;;
46210;SDS011;52144;48.040;-1.594;2023-06-10T02:52:22;8.07;;;4.85;;
46210;SDS011;52144;48.040;-1.594;2023-06-10T02:54:50;7.13;;;5.32;;
46210;SDS011;52144;48.040;-1.594;2023-06-10T02:57:17;7.22;;;4.38;;
46210;SDS011;52144;48.040;-1.594;2023-06-10T02:59:45;11.50;;;4.97;;
46210;SDS011;52144;48.040;-1.594;2023-06-10T03:02:13;7.22;;;4.80;;
46210;SDS011;52144;48.040;-1.594;2023-06-10T03:04:43;7.97;;;5.28;;
46210;SDS011;52144;48.040;-1.594;2023-06-10T03:07:11;8.23;;;4.93;;
46210;SDS011;52144;48.040;-1.594;2023-06-10T03:09:39;11.18;;;5.90;;
46210;SDS011;52144;48.040;-1.594;2023-06-10T03:12:10;12.23;;;7.00;;
46210;SDS011;52144;48.040;-1.594;2023-06-10T03:14:38;9.60;;;5.53;;
46210;SDS011;52144;48.040;-1.594;2023-06-10T03:17:06;8.80;;;4.53;;
46210;SDS011;52144;48.040;-1.594;2023-06-10T03:19:34;8.00;;;4.97;;
46210;SDS011;52144;48.040;-1.594;2023-06-10T03:22:09;11.70;;;6.85;;
46210;SDS011;52144;48.040;-1.594;2023-06-10T03:24:37;14.73;;;7.30;;
46210;SDS011;52144;48.040;-1.594;2023-06-10T03:27:06;8.27;;;6.07;;
46210;SDS011;52144;48.040;-1.594;2023-06-10T03:29:35;11.63;;;6.28;;
46210;SDS011;52144;48.040;-1.594;2023-06-10T03:32:03;18.55;;;6.38;;
46210;SDS011;52144;48.040;-1.594;2023-06-10T03:34:31;11.85;;;6.45;;
46210;SDS011;52144;48.040;-1.594;2023-06-10T03:37:00;8.07;;;5.60;;
46210;SDS011;52144;48.040;-1.594;2023-06-10T03:39:29;15.35;;;7.00;;
46210;SDS011;52144;48.040;-1.594;2023-06-10T03:41:57;11.23;;;6.30;;
46210;SDS011;52144;48.040;-1.594;2023-06-10T03:44:25;7.18;;;5.63;;
46210;SDS011;52144;48.040;-1.594;2023-06-10T03:46:53;14.20;;;6.22;;
46210;SDS011;52144;48.040;-1.594;2023-06-10T03:49:22;13.95;;;5.63;;
46210;SDS011;52144;48.040;-1.594;2023-06-10T03:51:53;9.27;;;6.00;;
46210;SDS011;52144;48.040;-1.594;2023-06-10T03:54:21;11.13;;;6.57;;
46210;SDS011;52144;48.040;-1.594;2023-06-10T03:56:50;9.82;;;5.15;;
46210;SDS011;52144;48.040;-1.594;2023-06-10T03:59:18;16.25;;;6.32;;
46210;SDS011;52144;48.040;-1.594;2023-06-10T04:01:46;11.10;;;5.80;;
46210;SDS011;52144;48.040;-1.594;2023-06-10T04:04:14;9.52;;;5.38;;
46210;SDS011;52144;48.040;-1.594;2023-06-10T04:06:43;9.57;;;5.03;;
46210;SDS011;52144;48.040;-1.594;2023-06-10T04:09:11;9.77;;;5.60;;
46210;SDS011;52144;48.040;-1.594;2023-06-10T04:11:40;8.77;;;5.97;;
46210;SDS011;52144;48.040;-1.594;2023-06-10T04:14:09;13.68;;;6.25;;
46210;SDS011;52144;48.040;-1.594;2023-06-10T04:16:37;10.40;;;6.93;;
46210;SDS011;52144;48.040;-1.594;2023-06-10T04:19:04;9.85;;;5.63;;
46210;SDS011;52144;48.040;-1.594;2023-06-10T04:21:32;10.38;;;5.63;;
46210;SDS011;52144;48.040;-1.594;2023-06-10T04:24:02;8.65;;;5.68;;
46210;SDS011;52144;48.040;-1.594;2023-06-10T04:26:30;10.80;;;4.72;;
46210;SDS011;52144;48.040;-1.594;2023-06-10T04:28:58;7.65;;;5.28;;
46210;SDS011;52144;48.040;-1.594;2023-06-10T04:31:27;7.63;;;5.25;;
46210;SDS011;52144;48.040;-1.594;2023-06-10T04:33:55;13.38;;;5.47;;
46210;SDS011;52144;48.040;-1.594;2023-06-10T04:36:23;12.43;;;6.13;;
46210;SDS011;52144;48.040;-1.594;2023-06-10T04:38:50;14.57;;;6.10;;
46210;SDS011;52144;48.040;-1.594;2023-06-10T04:41:19;7.07;;;4.88;;
46210;SDS011;52144;48.040;-1.594;2023-06-10T04:43:48;10.98;;;6.03;;
46210;SDS011;52144;48.040;-1.594;2023-06-10T04:46:16;9.98;;;5.82;;
46210;SDS011;52144;48.040;-1.594;2023-06-10T04:48:45;11.15;;;6.03;;
46210;SDS011;52144;48.040;-1.594;2023-06-10T04:51:13;9.93;;;5.95;;
46210;SDS011;52144;48.040;-1.594;2023-06-10T04:53:41;12.10;;;5.25;;
46210;SDS011;52144;48.040;-1.594;2023-06-10T04:56:09;11.90;;;4.60;;
46210;SDS011;52144;48.040;-1.594;2023-06-10T04:58:37;5.95;;;4.60;;
46210;SDS011;52144;48.040;-1.594;2023-06-10T05:01:05;6.20;;;4.10;;
46210;SDS011;52144;48.040;-1.594;2023-06-10T05:03:32;7.53;;;5.28;;
46210;SDS011;52144;48.040;-1.594;2023-06-10T05:06:02;9.30;;;5.40;;
46210;SDS011;52144;48.040;-1.594;2023-06-10T05:08:29;7.00;;;4.70;;
46210;SDS011;52144;48.040;-1.594;2023-06-10T05:10:57;7.32;;;5.32;;
46210;SDS011;52144;48.040;-1.594;2023-06-10T05:13:25;7.05;;;4.82;;
46210;SDS011;52144;48.040;-1.594;2023-06-10T05:15:53;11.93;;;4.43;;
46210;SDS011;52144;48.040;-1.594;2023-06-10T05:18:21;10.30;;;5.28;;
46210;SDS011;52144;48.040;-1.594;2023-06-10T05:20:48;11.15;;;4.60;;
46210;SDS011;52144;48.040;-1.594;2023-06-10T05:23:18;8.70;;;4.80;;
46210;SDS011;52144;48.040;-1.594;2023-06-10T05:25:45;7.15;;;4.72;;
46210;SDS011;52144;48.040;-1.594;2023-06-10T05:28:14;7.15;;;4.32;;
46210;SDS011;52144;48.040;-1.594;2023-06-10T05:30:42;9.38;;;5.00;;
46210;SDS011;52144;48.040;-1.594;2023-06-10T05:33:09;9.90;;;5.63;;
46210;SDS011;52144;48.040;-1.594;2023-06-10T05:35:37;13.05;;;5.15;;
46210;SDS011;52144;48.040;-1.594;2023-06-10T05:38:05;9.93;;;4.63;;
46210;SDS011;52144;48.040;-1.594;2023-06-10T05:40:35;6.68;;;4.28;;
46210;SDS011;52144;48.040;-1.594;2023-06-10T05:43:02;10.80;;;4.60;;
46210;SDS011;52144;48.040;-1.594;2023-06-10T05:45:30;9.10;;;4.82;;
46210;SDS011;52144;48.040;-1.594;2023-06-10T05:47:58;6.53;;;4.35;;
46210;SDS011;52144;48.040;-1.594;2023-06-10T05:50:26;6.30;;;4.65;;
46210;SDS011;52144;48.040;-1.594;2023-06-10T05:52:54;10.70;;;5.00;;
46210;SDS011;52144;48.040;-1.594;2023-06-10T05:55:22;7.20;;;5.07;;
46210;SDS011;52144;48.040;-1.594;2023-06-10T05:57:59;7.32;;;4.72;;
46210;SDS011;52144;48.040;-1.594;2023-06-10T06:00:27;8.75;;;5.57;;
46210;SDS011;52144;48.040;-1.594;2023-06-10T06:02:55;8.30;;;4.57;;
46210;SDS011;52144;48.040;-1.594;2023-06-10T06:05:23;10.57;;;4.97;;
46210;SDS011;52144;48.040;-1.594;2023-06-10T06:07:51;8.68;;;5.32;;
46210;SDS011;52144;48.040;-1.594;2023-06-10T06:10:20;7.97;;;4.60;;
46210;SDS011;52144;48.040;-1.594;2023-06-10T06:12:47;9.88;;;5.15;;
46210;SDS011;52144;48.040;-1.594;2023-06-10T06:15:16;9.05;;;5.15;;
46210;SDS011;52144;48.040;-1.594;2023-06-10T06:17:44;10.38;;;5.93;;
46210;SDS011;52144;48.040;-1.594;2023-06-10T06:20:12;9.30;;;4.97;;
46210;SDS011;52144;48.040;-1.594;2023-06-10T06:22:42;10.02;;;5.72;;
46210;SDS011;52144;48.040;-1.594;2023-06-10T06:25:10;10.57;;;5.97;;
46210;SDS011;52144;48.040;-1.594;2023-06-10T06:27:38;10.45;;;5.50;;
46210;SDS011;52144;48.040;-1.594;2023-06-10T06:30:06;11.05;;;5.65;;
46210;SDS011;52144;48.040;-1.594;2023-06-10T06:32:36;9.88;;;5.88;;
46210;SDS011;52144;48.040;-1.594;2023-06-10T06:35:04;13.52;;;5.78;;
46210;SDS011;52144;48.040;-1.594;2023-06-10T06:37:35;10.55;;;5.95;;
46210;SDS011;52144;48.040;-1.594;2023-06-10T06:40:03;10.18;;;6.68;;
46210;SDS011;52144;48.040;-1.594;2023-06-10T06:42:32;10.15;;;5.93;;
46210;SDS011;52144;48.040;-1.594;2023-06-10T06:45:00;11.35;;;5.07;;
46210;SDS011;52144;48.040;-1.594;2023-06-10T06:47:28;16.60;;;7.13;;
46210;SDS011;52144;48.040;-1.594;2023-06-10T06:49:57;16.90;;;6.60;;
46210;SDS011;52144;48.040;-1.594;2023-06-10T06:52:24;12.73;;;6.80;;
46210;SDS011;52144;48.040;-1.594;2023-06-10T06:54:52;15.43;;;7.20;;
46210;SDS011;52144;48.040;-1.594;2023-06-10T06:57:20;11.18;;;6.82;;
46210;SDS011;52144;48.040;-1.594;2023-06-10T06:59:49;14.38;;;5.80;;
46210;SDS011;52144;48.040;-1.594;2023-06-10T07:02:17;11.02;;;6.72;;
46210;SDS011;52144;48.040;-1.594;2023-06-10T07:04:45;14.40;;;7.10;;
46210;SDS011;52144;48.040;-1.594;2023-06-10T07:07:16;12.77;;;7.32;;
46210;SDS011;52144;48.040;-1.594;2023-06-10T07:09:44;14.13;;;7.45;;
46210;SDS011;52144;48.040;-1.594;2023-06-10T07:12:12;9.10;;;5.53;;
46210;SDS011;52144;48.040;-1.594;2023-06-10T07:14:39;11.70;;;7.68;;
46210;SDS011;52144;48.040;-1.594;2023-06-10T07:17:07;14.05;;;8.38;;
46210;SDS011;52144;48.040;-1.594;2023-06-10T07:19:35;12.48;;;7.88;;
46210;SDS011;52144;48.040;-1.594;2023-06-10T07:22:03;15.90;;;7.22;;
46210;SDS011;52144;48.040;-1.594;2023-06-10T07:24:33;23.35;;;8.70;;
46210;SDS011;52144;48.040;-1.594;2023-06-10T07:27:00;18.25;;;9.93;;
46210;SDS011;52144;48.040;-1.594;2023-06-10T07:29:28;14.85;;;7.72;;
46210;SDS011;52144;48.040;-1.594;2023-06-10T07:31:56;14.50;;;8.32;;
46210;SDS011;52144;48.040;-1.594;2023-06-10T07:34:24;11.80;;;8.35;;
46210;SDS011;52144;48.040;-1.594;2023-06-10T07:36:51;14.73;;;7.95;;
46210;SDS011;52144;48.040;-1.594;2023-06-10T07:39:19;14.52;;;8.18;;
46210;SDS011;52144;48.040;-1.594;2023-06-10T07:41:48;13.38;;;8.02;;
46210;SDS011;52144;48.040;-1.594;2023-06-10T07:44:18;20.10;;;8.85;;
46210;SDS011;52144;48.040;-1.594;2023-06-10T07:46:45;11.90;;;7.53;;
46210;SDS011;52144;48.040;-1.594;2023-06-10T07:49:13;13.02;;;8.75;;
46210;SDS011;52144;48.040;-1.594;2023-06-10T07:51:41;15.13;;;8.77;;
46210;SDS011;52144;48.040;-1.594;2023-06-10T07:54:09;13.38;;;8.00;;
46210;SDS011;52144;48.040;-1.594;2023-06-10T07:56:38;9.68;;;5.97;;
46210;SDS011;52144;48.040;-1.594;2023-06-10T07:59:07;14.13;;;7.05;;
46210;SDS011;52144;48.040;-1.594;2023-06-10T08:01:35;13.18;;;6.93;;
46210;SDS011;52144;48.040;-1.594;2023-06-10T08:04:05;12.88;;;7.60;;
46210;SDS011;52144;48.040;-1.594;2023-06-10T08:06:34;10.55;;;6.50;;
46210;SDS011;52144;48.040;-1.594;2023-06-10T08:09:02;13.80;;;7.68;;
46210;SDS011;52144;48.040;-1.594;2023-06-10T08:11:30;15.45;;;7.32;;
46210;SDS011;52144;48.040;-1.594;2023-06-10T08:13:58;18.35;;;7.22;;
46210;SDS011;52144;48.040;-1.594;2023-06-10T08:16:27;13.90;;;7.30;;
46210;SDS011;52144;48.040;-1.594;2023-06-10T08:18:55;9.35;;;5.90;;
46210;SDS011;52144;48.040;-1.594;2023-06-10T08:21:23;10.90;;;6.97;;
46210;SDS011;52144;48.040;-1.594;2023-06-10T08:23:52;8.75;;;6.20;;
46210;SDS011;52144;48.040;-1.594;2023-06-10T08:26:20;12.00;;;7.13;;
46210;SDS011;52144;48.040;-1.594;2023-06-10T08:28:48;9.40;;;6.22;;
46210;SDS011;52144;48.040;-1.594;2023-06-10T08:31:16;12.57;;;7.25;;
46210;SDS011;52144;48.040;-1.594;2023-06-10T08:33:45;9.25;;;6.32;;
46210;SDS011;52144;48.040;-1.594;2023-06-10T08:36:13;11.93;;;6.70;;
46210;SDS011;52144;48.040;-1.594;2023-06-10T08:38:41;11.52;;;5.78;;
46210;SDS011;52144;48.040;-1.594;2023-06-10T08:41:08;9.13;;;5.43;;
46210;SDS011;52144;48.040;-1.594;2023-06-10T08:43:38;12.57;;;6.57;;
46210;SDS011;52144;48.040;-1.594;2023-06-10T08:46:09;8.88;;;6.65;;
46210;SDS011;52144;48.040;-1.594;2023-06-10T08:48:39;8.15;;;6.00;;
46210;SDS011;52144;48.040;-1.594;2023-06-10T08:51:12;13.43;;;7.25;;
46210;SDS011;52144;48.040;-1.594;2023-06-10T08:53:42;13.30;;;5.70;;
46210;SDS011;52144;48.040;-1.594;2023-06-10T08:56:16;7.53;;;5.07;;
46210;SDS011;52144;48.040;-1.594;2023-06-10T08:58:45;10.07;;;5.95;;
46210;SDS011;52144;48.040;-1.594;2023-06-10T09:01:14;6.75;;;4.90;;
46210;SDS011;52144;48.040;-1.594;2023-06-10T09:03:43;9.30;;;5.85;;
46210;SDS011;52144;48.040;-1.594;2023-06-10T09:06:12;8.40;;;6.60;;
46210;SDS011;52144;48.040;-1.594;2023-06-10T09:08:40;9.27;;;5.65;;
46210;SDS011;52144;48.040;-1.594;2023-06-10T09:11:09;9.35;;;5.35;;
46210;SDS011;52144;48.040;-1.594;2023-06-10T09:13:37;6.65;;;4.65;;
46210;SDS011;52144;48.040;-1.594;2023-06-10T09:16:05;11.10;;;6.38;;
46210;SDS011;52144;48.040;-1.594;2023-06-10T09:18:34;6.82;;;4.65;;
46210;SDS011;52144;48.040;-1.594;2023-06-10T09:21:02;7.45;;;5.35;;
46210;SDS011;52144;48.040;-1.594;2023-06-10T09:23:31;9.10;;;4.85;;
46210;SDS011;52144;48.040;-1.594;2023-06-10T09:26:00;10.25;;;5.82;;
46210;SDS011;52144;48.040;-1.594;2023-06-10T09:28:30;8.13;;;6.05;;
46210;SDS011;52144;48.040;-1.594;2023-06-10T09:31:01;7.90;;;5.80;;
46210;SDS011;52144;48.040;-1.594;2023-06-10T09:33:31;14.00;;;6.90;;
46210;SDS011;52144;48.040;-1.594;2023-06-10T09:35:59;8.45;;;5.50;;
46210;SDS011;52144;48.040;-1.594;2023-06-10T09:38:29;10.75;;;6.55;;
46210;SDS011;52144;48.040;-1.594;2023-06-10T09:41:00;15.35;;;6.25;;
46210;SDS011;52144;48.040;-1.594;2023-06-10T09:43:38;13.15;;;5.68;;
46210;SDS011;52144;48.040;-1.594;2023-06-10T09:46:08;10.25;;;5.22;;
46210;SDS011;52144;48.040;-1.594;2023-06-10T09:48:42;7.90;;;5.20;;
46210;SDS011;52144;48.040;-1.594;2023-06-10T09:51:12;10.52;;;5.45;;
46210;SDS011;52144;48.040;-1.594;2023-06-10T09:53:41;12.23;;;5.82;;
46210;SDS011;52144;48.040;-1.594;2023-06-10T09:56:09;9.98;;;6.07;;
46210;SDS011;52144;48.040;-1.594;2023-06-10T09:58:38;14.13;;;7.10;;
46210;SDS011;52144;48.040;-1.594;2023-06-10T10:01:10;12.45;;;7.35;;
46210;SDS011;52144;48.040;-1.594;2023-06-10T10:03:45;8.88;;;5.95;;
46210;SDS011;52144;48.040;-1.594;2023-06-10T10:06:14;15.25;;;6.43;;
46210;SDS011;52144;48.040;-1.594;2023-06-10T10:08:44;8.45;;;6.10;;
46210;SDS011;52144;48.040;-1.594;2023-06-10T10:11:12;9.38;;;6.35;;
46210;SDS011;52144;48.040;-1.594;2023-06-10T10:13:43;13.52;;;6.50;;
46210;SDS011;52144;48.040;-1.594;2023-06-10T10:16:15;9.57;;;6.50;;
46210;SDS011;52144;48.040;-1.594;2023-06-10T10:18:45;7.60;;;5.20;;
46210;SDS011;52144;48.040;-1.594;2023-06-10T10:21:16;10.85;;;6.55;;
46210;SDS011;52144;48.040;-1.594;2023-06-10T10:23:58;13.25;;;8.70;;
46210;SDS011;52144;48.040;-1.594;2023-06-10T10:26:30;12.75;;;8.50;;
46210;SDS011;52144;48.040;-1.594;2023-06-10T10:29:02;15.40;;;9.57;;
46210;SDS011;52144;48.040;-1.594;2023-06-10T10:31:37;11.25;;;7.13;;
46210;SDS011;52144;48.040;-1.594;2023-06-10T10:34:09;14.88;;;7.53;;
46210;SDS011;52144;48.040;-1.594;2023-06-10T10:36:40;11.18;;;6.93;;
46210;SDS011;52144;48.040;-1.594;2023-06-10T10:39:10;11.77;;;6.85;;
46210;SDS011;52144;48.040;-1.594;2023-06-10T10:41:39;10.30;;;6.47;;
46210;SDS011;52144;48.040;-1.594;2023-06-10T10:44:07;8.27;;;5.00;;
46210;SDS011;52144;48.040;-1.594;2023-06-10T10:46:41;9.93;;;6.22;;
46210;SDS011;52144;48.040;-1.594;2023-06-10T10:49:11;10.00;;;6.30;;
46210;SDS011;52144;48.040;-1.594;2023-06-10T10:51:54;12.90;;;7.47;;
46210;SDS011;52144;48.040;-1.594;2023-06-10T10:54:29;12.93;;;7.32;;
46210;SDS011;52144;48.040;-1.594;2023-06-10T10:57:11;15.63;;;6.03;;
46210;SDS011;52144;48.040;-1.594;2023-06-10T10:59:54;11.50;;;7.43;;
46210;SDS011;52144;48.040;-1.594;2023-06-10T11:02:33;11.35;;;6.70;;
46210;SDS011;52144;48.040;-1.594;2023-06-10T11:05:05;8.20;;;6.00;;
46210;SDS011;52144;48.040;-1.594;2023-06-10T11:07:35;13.65;;;7.32;;
46210;SDS011;52144;48.040;-1.594;2023-06-10T11:10:07;12.82;;;6.80;;
46210;SDS011;52144;48.040;-1.594;2023-06-10T11:12:49;12.13;;;8.30;;
46210;SDS011;52144;48.040;-1.594;2023-06-10T11:15:19;13.85;;;7.95;;
46210;SDS011;52144;48.040;-1.594;2023-06-10T11:18:08;13.02;;;8.20;;
46210;SDS011;52144;48.040;-1.594;2023-06-10T11:23:34;16.48;;;9.57;;
46210;SDS011;52144;48.040;-1.594;2023-06-10T11:29:08;14.48;;;9.25;;
46210;SDS011;52144;48.040;-1.594;2023-06-10T11:31:40;14.07;;;9.02;;
46210;SDS011;52144;48.040;-1.594;2023-06-10T11:34:10;23.00;;;10.25;;
46210;SDS011;52144;48.040;-1.594;2023-06-10T11:36:41;14.93;;;9.98;;
46210;SDS011;52144;48.040;-1.594;2023-06-10T11:39:12;15.20;;;8.63;;
46210;SDS011;52144;48.040;-1.594;2023-06-10T11:41:41;13.45;;;8.63;;
46210;SDS011;52144;48.040;-1.594;2023-06-10T11:44:09;18.40;;;10.75;;
46210;SDS011;52144;48.040;-1.594;2023-06-10T11:46:43;14.65;;;9.13;;
46210;SDS011;52144;48.040;-1.594;2023-06-10T11:49:12;14.07;;;7.22;;
46210;SDS011;52144;48.040;-1.594;2023-06-10T11:51:40;10.13;;;6.90;;
46210;SDS011;52144;48.040;-1.594;2023-06-10T11:54:15;13.20;;;8.77;;
46210;SDS011;52144;48.040;-1.594;2023-06-10T11:56:45;16.60;;;9.38;;
46210;SDS011;52144;48.040;-1.594;2023-06-10T11:59:13;14.85;;;9.13;;
46210;SDS011;52144;48.040;-1.594;2023-06-10T12:01:42;15.18;;;8.55;;
46210;SDS011;52144;48.040;-1.594;2023-06-10T12:04:11;11.80;;;7.45;;
46210;SDS011;52144;48.040;-1.594;2023-06-10T12:06:40;14.82;;;7.80;;
46210;SDS011;52144;48.040;-1.594;2023-06-10T12:09:19;10.98;;;8.43;;
46210;SDS011;52144;48.040;-1.594;2023-06-10T12:11:54;13.18;;;8.38;;
46210;SDS011;52144;48.040;-1.594;2023-06-10T12:17:14;15.82;;;8.90;;
46210;SDS011;52144;48.040;-1.594;2023-06-10T12:19:42;17.15;;;9.30;;
46210;SDS011;52144;48.040;-1.594;2023-06-10T12:22:10;13.50;;;8.38;;
46210;SDS011;52144;48.040;-1.594;2023-06-10T12:24:43;10.40;;;7.35;;
46210;SDS011;52144;48.040;-1.594;2023-06-10T12:27:13;18.77;;;8.43;;
46210;SDS011;52144;48.040;-1.594;2023-06-10T12:29:50;20.48;;;9.68;;
46210;SDS011;52144;48.040;-1.594;2023-06-10T12:32:20;16.85;;;9.65;;
46210;SDS011;52144;48.040;-1.594;2023-06-10T12:34:51;14.82;;;7.63;;
46210;SDS011;52144;48.040;-1.594;2023-06-10T12:37:30;12.88;;;8.57;;
46210;SDS011;52144;48.040;-1.594;2023-06-10T12:40:00;13.93;;;8.95;;
46210;SDS011;52144;48.040;-1.594;2023-06-10T12:42:30;36.55;;;12.88;;
46210;SDS011;52144;48.040;-1.594;2023-06-10T12:44:59;15.68;;;10.23;;
46210;SDS011;52144;48.040;-1.594;2023-06-10T12:47:31;15.93;;;9.50;;
46210;SDS011;52144;48.040;-1.594;2023-06-10T12:50:01;14.15;;;8.48;;
46210;SDS011;52144;48.040;-1.594;2023-06-10T12:52:30;11.32;;;7.45;;
46210;SDS011;52144;48.040;-1.594;2023-06-10T12:54:58;11.10;;;6.57;;
46210;SDS011;52144;48.040;-1.594;2023-06-10T12:57:27;13.27;;;8.45;;
46210;SDS011;52144;48.040;-1.594;2023-06-10T12:59:57;12.00;;;7.20;;
46210;SDS011;52144;48.040;-1.594;2023-06-10T13:02:30;8.02;;;6.00;;
46210;SDS011;52144;48.040;-1.594;2023-06-10T13:04:58;12.70;;;7.47;;
46210;SDS011;52144;48.040;-1.594;2023-06-10T13:07:26;9.85;;;7.30;;
46210;SDS011;52144;48.040;-1.594;2023-06-10T13:09:54;16.08;;;7.72;;
46210;SDS011;52144;48.040;-1.594;2023-06-10T13:12:22;12.82;;;6.60;;
46210;SDS011;52144;48.040;-1.594;2023-06-10T13:15:09;10.13;;;6.70;;
46210;SDS011;52144;48.040;-1.594;2023-06-10T13:17:38;11.32;;;7.15;;
46210;SDS011;52144;48.040;-1.594;2023-06-10T13:20:06;10.63;;;6.30;;
46210;SDS011;52144;48.040;-1.594;2023-06-10T13:22:35;14.55;;;7.18;;
46210;SDS011;52144;48.040;-1.594;2023-06-10T13:25:03;9.50;;;5.68;;
46210;SDS011;52144;48.040;-1.594;2023-06-10T13:27:33;8.35;;;6.43;;
46210;SDS011;52144;48.040;-1.594;2023-06-10T13:30:01;7.15;;;5.05;;
46210;SDS011;52144;48.040;-1.594;2023-06-10T13:32:30;11.88;;;6.43;;
46210;SDS011;52144;48.040;-1.594;2023-06-10T13:34:58;8.25;;;5.40;;
46210;SDS011;52144;48.040;-1.594;2023-06-10T13:37:30;8.85;;;5.63;;
46210;SDS011;52144;48.040;-1.594;2023-06-10T13:39:59;8.48;;;5.75;;
46210;SDS011;52144;48.040;-1.594;2023-06-10T13:42:28;10.82;;;5.30;;
46210;SDS011;52144;48.040;-1.594;2023-06-10T13:44:56;6.18;;;4.43;;
46210;SDS011;52144;48.040;-1.594;2023-06-10T13:47:24;5.50;;;4.55;;
46210;SDS011;52144;48.040;-1.594;2023-06-10T13:49:56;5.93;;;5.25;;
46210;SDS011;52144;48.040;-1.594;2023-06-10T13:52:25;8.07;;;5.82;;
46210;SDS011;52144;48.040;-1.594;2023-06-10T13:54:52;8.45;;;5.15;;
46210;SDS011;52144;48.040;-1.594;2023-06-10T13:57:20;10.20;;;6.35;;
46210;SDS011;52144;48.040;-1.594;2023-06-10T13:59:48;8.70;;;5.55;;
46210;SDS011;52144;48.040;-1.594;2023-06-10T14:02:16;12.10;;;6.47;;
46210;SDS011;52144;48.040;-1.594;2023-06-10T14:04:44;9.40;;;6.30;;
46210;SDS011;52144;48.040;-1.594;2023-06-10T14:07:14;14.18;;;6.68;;
46210;SDS011;52144;48.040;-1.594;2023-06-10T14:09:42;9.07;;;6.70;;
46210;SDS011;52144;48.040;-1.594;2023-06-10T14:12:10;9.15;;;6.28;;
46210;SDS011;52144;48.040;-1.594;2023-06-10T14:14:39;12.82;;;8.30;;
46210;SDS011;52144;48.040;-1.594;2023-06-10T14:17:06;12.25;;;8.85;;
46210;SDS011;52144;48.040;-1.594;2023-06-10T14:19:34;9.43;;;6.90;;
46210;SDS011;52144;48.040;-1.594;2023-06-10T14:22:02;16.13;;;9.32;;
46210;SDS011;52144;48.040;-1.594;2023-06-10T14:24:34;12.30;;;7.10;;
46210;SDS011;52144;48.040;-1.594;2023-06-10T14:27:03;10.40;;;7.55;;
46210;SDS011;52144;48.040;-1.594;2023-06-10T14:29:31;16.00;;;7.95;;
46210;SDS011;52144;48.040;-1.594;2023-06-10T14:32:00;11.77;;;7.72;;
46210;SDS011;52144;48.040;-1.594;2023-06-10T14:34:30;12.55;;;6.53;;
46210;SDS011;52144;48.040;-1.594;2023-06-10T14:37:00;10.95;;;7.68;;
46210;SDS011;52144;48.040;-1.594;2023-06-10T14:39:29;11.00;;;7.57;;
46210;SDS011;52144;48.040;-1.594;2023-06-10T14:41:58;10.40;;;7.10;;
46210;SDS011;52144;48.040;-1.594;2023-06-10T14:44:26;11.25;;;7.28;;
46210;SDS011;52144;48.040;-1.594;2023-06-10T14:46:54;11.38;;;6.70;;